Niles, Illinois
Current Conditions -  °F | °C
As of 2:51 PM on Tuesday 21 Oct 2014 (Local Time) from KORD Reporting Station
Overcast Overcast  
Wind Chill: 10°   Ceiling: 3000
Heat Index: 10°   Visibility: 10mi
Dew Point:   Wind: 15mph
Humidity: 68%   Direction: 10°N
Pressure: 30.19"   Gusts: NA
Location:  42.02°N, 87.8°W
Report Text: KORD 211951Z 01013KT 10SM FEW022 OVC030 10/04 A3019 RMK AO2 SLP225 T01000044
Loading
Personal Weather Stations






























Interactive Weather Map
Tropical Storm Tracking
New forecast layout! Learn more

10-Day Weather Forecast

Advertisements
Track Severe Weather on mobile